createdAt,value
2022-10-18T00:02:22.196Z,17.23
2022-10-18T00:04:48.801Z,21.60
2022-10-18T00:07:15.412Z,21.02
2022-10-18T00:09:41.983Z,17.17
2022-10-18T00:12:08.483Z,19.17
2022-10-18T00:14:35.047Z,18.20
2022-10-18T00:17:01.696Z,17.77
2022-10-18T00:19:29.369Z,18.27
2022-10-18T00:21:56.365Z,17.88
2022-10-18T00:24:22.872Z,15.00
2022-10-18T00:26:49.355Z,16.08
2022-10-18T00:29:16.543Z,22.75
2022-10-18T00:31:43.689Z,18.15
2022-10-18T00:34:13.135Z,19.23
2022-10-18T00:36:40.286Z,19.27
2022-10-18T00:39:08.033Z,35.05
2022-10-18T00:41:36.508Z,34.17
2022-10-18T00:44:07.618Z,36.92
2022-10-18T00:46:36.259Z,29.35
2022-10-18T00:49:16.209Z,29.63
2022-10-18T00:51:46.445Z,23.80
2022-10-18T00:54:14.000Z,29.58
2022-10-18T00:56:40.891Z,28.85
2022-10-18T00:59:07.953Z,49.83
2022-10-18T01:01:34.562Z,37.15
2022-10-18T01:04:01.241Z,25.45
2022-10-18T01:06:28.589Z,25.65
2022-10-18T01:09:10.262Z,26.77
2022-10-18T01:11:56.996Z,28.25
2022-10-18T01:14:33.106Z,24.58
2022-10-18T01:17:04.036Z,28.05
2022-10-18T01:19:39.394Z,45.53
2022-10-18T01:22:11.908Z,36.30
2022-10-18T01:24:46.278Z,38.35
2022-10-18T01:27:43.397Z,32.63
2022-10-18T01:30:27.894Z,40.60
2022-10-18T01:33:00.527Z,29.05
2022-10-18T01:35:31.465Z,32.83
2022-10-18T01:38:00.694Z,33.60
2022-10-18T01:40:28.424Z,32.28
2022-10-18T01:42:55.444Z,39.72
2022-10-18T01:45:23.325Z,40.25
2022-10-18T01:47:50.115Z,36.42
2022-10-18T01:50:28.485Z,43.80
2022-10-18T01:52:54.967Z,43.60
2022-10-18T01:55:43.089Z,43.28
2022-10-18T01:58:14.400Z,42.20
2022-10-18T02:00:44.917Z,36.22
2022-10-18T02:03:20.769Z,42.37
2022-10-18T02:05:51.322Z,39.45
2022-10-18T02:08:24.007Z,44.55
2022-10-18T02:11:03.831Z,35.60
2022-10-18T02:13:35.088Z,40.88
2022-10-18T02:16:06.414Z,35.63
2022-10-18T02:21:29.828Z,36.65
2022-10-18T02:23:57.933Z,27.67
2022-10-18T02:26:24.816Z,38.13
2022-10-18T02:28:51.767Z,35.45
2022-10-18T02:31:37.348Z,52.85
2022-10-18T02:34:15.264Z,46.85
2022-10-18T02:36:51.948Z,49.78
2022-10-18T02:39:21.695Z,42.88
2022-10-18T02:41:48.295Z,47.28
2022-10-18T02:44:15.097Z,51.00
2022-10-18T02:46:41.812Z,56.65
2022-10-18T02:49:08.310Z,35.08
2022-10-18T02:51:34.875Z,43.33
2022-10-18T02:54:01.419Z,38.30
2022-10-18T02:56:27.900Z,44.60
2022-10-18T02:58:54.447Z,39.65
2022-10-18T03:01:20.960Z,48.90
2022-10-18T03:03:49.440Z,55.47
2022-10-18T03:06:15.948Z,49.17
2022-10-18T03:08:42.496Z,48.22
2022-10-18T03:11:08.968Z,49.63
2022-10-18T03:13:35.518Z,50.70
2022-10-18T03:16:02.181Z,44.05
2022-10-18T03:18:28.881Z,66.47
2022-10-18T03:20:55.368Z,52.22
2022-10-18T03:23:21.944Z,46.65
2022-10-18T03:25:48.413Z,45.22
2022-10-18T03:28:14.918Z,57.15
2022-10-18T03:30:41.399Z,48.75
2022-10-18T03:33:07.934Z,63.33
2022-10-18T03:35:34.430Z,70.13
2022-10-18T03:38:01.036Z,65.18
2022-10-18T03:40:27.652Z,60.72
2022-10-18T03:42:56.851Z,84.85
2022-10-18T03:45:27.485Z,73.80
2022-10-18T03:47:56.991Z,81.38
2022-10-18T03:50:23.497Z,103.03
2022-10-18T03:52:50.003Z,90.13
2022-10-18T03:55:16.501Z,82.22
2022-10-18T03:57:43.149Z,81.45
2022-10-18T04:00:10.544Z,109.00
2022-10-18T04:02:40.872Z,129.35
2022-10-18T04:05:07.689Z,89.72
2022-10-18T04:07:38.009Z,247.35
2022-10-18T04:10:04.796Z,217.60
2022-10-18T04:12:31.672Z,106.82
2022-10-18T04:14:58.556Z,111.53
2022-10-18T04:17:25.077Z,93.93
2022-10-18T04:19:51.585Z,102.88
2022-10-18T04:22:18.122Z,115.40
2022-10-18T04:24:44.669Z,107.32
2022-10-18T04:27:11.225Z,103.85
2022-10-18T04:29:37.709Z,106.95
2022-10-18T04:32:04.388Z,111.88
2022-10-18T04:34:31.007Z,108.20
2022-10-18T04:36:57.628Z,108.80
2022-10-18T04:39:24.093Z,106.53
2022-10-18T04:41:50.667Z,111.40
2022-10-18T04:44:17.173Z,105.70
2022-10-18T04:46:43.660Z,124.07
2022-10-18T04:49:10.147Z,141.20
2022-10-18T04:51:36.725Z,119.72
2022-10-18T04:54:03.369Z,105.88
2022-10-18T04:56:29.950Z,108.22
2022-10-18T04:58:56.487Z,108.57
2022-10-18T05:01:23.039Z,112.18
2022-10-18T05:03:54.162Z,129.73
2022-10-18T05:06:21.494Z,115.53
2022-10-18T05:08:48.184Z,119.00
2022-10-18T05:11:14.760Z,155.40
2022-10-18T05:13:41.332Z,133.45
2022-10-18T05:16:07.900Z,150.73
2022-10-18T05:18:34.386Z,131.40
2022-10-18T05:21:00.898Z,113.20
2022-10-18T05:23:27.435Z,110.32
2022-10-18T05:25:54.017Z,118.38
2022-10-18T05:28:38.794Z,209.57
2022-10-18T05:31:07.797Z,134.30
2022-10-18T05:33:34.766Z,128.80
2022-10-18T05:36:01.557Z,110.00
2022-10-18T05:38:30.891Z,346.05
2022-10-18T05:40:58.467Z,131.90
2022-10-18T05:43:28.760Z,123.63
2022-10-18T05:45:55.645Z,123.30
2022-10-18T05:48:22.350Z,142.05
2022-10-18T05:50:48.833Z,128.82
2022-10-18T05:53:35.105Z,136.57
2022-10-18T05:56:02.688Z,116.55
2022-10-18T05:58:29.298Z,135.43
2022-10-18T06:01:01.324Z,142.45
2022-10-18T06:03:28.356Z,142.05
2022-10-18T06:06:06.566Z,164.23
2022-10-18T06:08:33.470Z,144.70
2022-10-18T06:11:00.127Z,144.50
2022-10-18T06:13:27.156Z,154.00
2022-10-18T06:15:57.646Z,148.95
2022-10-18T06:18:24.288Z,149.32
2022-10-18T06:20:56.726Z,162.38
2022-10-18T06:23:23.204Z,155.20
2022-10-18T06:25:49.783Z,147.88
2022-10-18T06:28:16.275Z,164.27
2022-10-18T06:30:42.766Z,160.70
2022-10-18T06:33:11.814Z,169.32
2022-10-18T06:35:38.261Z,153.48
2022-10-18T06:38:06.146Z,179.27
2022-10-18T06:40:37.766Z,159.27
2022-10-18T06:43:19.958Z,164.52
2022-10-18T06:45:47.468Z,147.23
2022-10-18T06:48:14.063Z,154.73
2022-10-18T06:50:40.634Z,159.18
2022-10-18T06:53:08.882Z,166.73
2022-10-18T06:55:35.940Z,155.27
2022-10-18T06:58:02.497Z,154.32
2022-10-18T07:00:29.025Z,174.77
2022-10-18T07:02:57.478Z,163.93
2022-10-18T07:05:24.143Z,147.88
2022-10-18T07:07:54.237Z,165.55
2022-10-18T07:10:23.879Z,159.80
2022-10-18T07:12:53.501Z,158.40
2022-10-18T07:15:24.003Z,159.38
2022-10-18T07:17:50.552Z,145.18
2022-10-18T07:20:17.189Z,157.30
2022-10-18T07:22:43.695Z,159.75
2022-10-18T07:25:10.265Z,188.00
2022-10-18T07:27:41.696Z,182.23
2022-10-18T07:32:35.425Z,151.88
2022-10-18T07:35:02.472Z,158.05
2022-10-18T07:37:30.290Z,159.90
2022-10-18T07:39:56.929Z,194.70
2022-10-18T07:42:23.402Z,148.20
2022-10-18T07:44:49.879Z,145.25
2022-10-18T07:47:16.458Z,171.20
2022-10-18T07:49:42.999Z,168.52
2022-10-18T07:52:09.598Z,165.38
2022-10-18T07:54:36.183Z,152.07
2022-10-18T07:57:04.456Z,143.98
2022-10-18T07:59:30.926Z,149.63
2022-10-18T08:01:57.466Z,139.52
2022-10-18T08:04:23.971Z,133.80
2022-10-18T08:06:50.438Z,147.30
2022-10-18T08:09:16.901Z,149.75
2022-10-18T08:11:43.510Z,158.85
2022-10-18T08:14:09.982Z,146.18
2022-10-18T08:16:36.499Z,169.40
2022-10-18T08:19:03.139Z,165.85
2022-10-18T08:21:29.672Z,149.90
2022-10-18T08:23:56.160Z,161.13
2022-10-18T08:26:23.331Z,180.60
2022-10-18T08:29:03.564Z,191.18
2022-10-18T08:31:36.643Z,185.88
2022-10-18T08:34:03.155Z,215.32
2022-10-18T08:36:29.704Z,213.70
2022-10-18T08:38:56.223Z,212.60
2022-10-18T08:41:32.699Z,205.48
2022-10-18T08:44:17.741Z,212.50
2022-10-18T08:46:46.945Z,210.52
2022-10-18T08:49:34.701Z,243.98
2022-10-18T08:52:01.855Z,239.30
2022-10-18T08:54:41.352Z,215.48
2022-10-18T08:57:13.675Z,222.02
2022-10-18T08:59:40.816Z,215.20
2022-10-18T09:02:10.120Z,225.45
2022-10-18T09:04:45.578Z,233.02
2022-10-18T09:07:38.071Z,236.25
2022-10-18T09:10:30.943Z,207.60
2022-10-18T09:13:10.547Z,204.05
2022-10-18T09:15:45.837Z,197.70
2022-10-18T09:18:28.177Z,207.30
2022-10-18T09:20:59.463Z,194.05
2022-10-18T09:26:15.084Z,207.25
2022-10-18T09:28:41.710Z,196.15
2022-10-18T09:31:20.662Z,177.10
2022-10-18T09:33:56.918Z,161.10
2022-10-18T09:36:26.324Z,156.20
2022-10-18T09:38:58.549Z,148.23
2022-10-18T09:41:34.192Z,147.45
2022-10-18T09:44:03.675Z,142.75
2022-10-18T09:46:33.931Z,151.60
2022-10-18T09:49:04.989Z,147.75
2022-10-18T09:51:37.192Z,140.70
2022-10-18T09:54:24.108Z,141.55
2022-10-18T09:57:03.655Z,138.82
2022-10-18T09:59:34.324Z,135.63
2022-10-18T10:02:00.972Z,128.75
2022-10-18T10:04:28.197Z,135.60
2022-10-18T10:06:56.120Z,128.50
2022-10-18T10:09:50.303Z,131.82
2022-10-18T10:12:33.007Z,127.43
2022-10-18T10:15:19.738Z,125.68
2022-10-18T10:18:17.362Z,123.80
2022-10-18T10:20:49.957Z,130.30
2022-10-18T10:23:28.165Z,137.00
2022-10-18T10:26:00.055Z,132.27
2022-10-18T10:28:30.091Z,133.88
2022-10-18T10:31:18.376Z,123.20
2022-10-18T10:33:47.672Z,105.53
2022-10-18T10:36:20.200Z,101.03
2022-10-18T10:39:03.772Z,92.55
2022-10-18T10:44:04.386Z,103.28
2022-10-18T10:46:35.733Z,95.60
2022-10-18T10:52:08.957Z,71.25
2022-10-18T10:54:47.553Z,70.00
2022-10-18T10:57:22.379Z,62.42
2022-10-18T10:59:49.404Z,63.28
2022-10-18T11:02:21.242Z,62.20
2022-10-18T11:04:50.383Z,61.05
2022-10-18T11:07:32.103Z,46.20
2022-10-18T11:10:07.409Z,55.40
2022-10-18T11:12:38.157Z,54.72
2022-10-18T11:15:11.747Z,50.25
2022-10-18T11:18:00.628Z,52.17
2022-10-18T11:20:40.415Z,50.83
2022-10-18T11:23:17.301Z,49.13
2022-10-18T11:25:43.720Z,47.67
2022-10-18T11:28:18.761Z,50.92
2022-10-18T11:31:03.637Z,46.85
2022-10-18T11:34:08.913Z,44.60
2022-10-18T11:37:22.860Z,40.58
2022-10-18T11:39:58.169Z,39.75
2022-10-18T11:42:39.982Z,34.05
2022-10-18T11:45:37.502Z,35.30
2022-10-18T11:48:42.738Z,29.50
2022-10-18T11:52:07.698Z,36.42
2022-10-18T11:54:57.676Z,40.92
2022-10-18T11:57:33.294Z,44.15
2022-10-18T12:00:15.835Z,34.08
2022-10-18T12:03:54.389Z,31.83
2022-10-18T12:06:22.665Z,30.25
2022-10-18T12:09:34.164Z,30.05
2022-10-18T12:12:03.060Z,29.27
2022-10-18T12:14:35.376Z,30.27
2022-10-18T12:17:40.728Z,31.95
2022-10-18T12:20:02.358Z,29.50
2022-10-18T12:22:35.500Z,32.83
2022-10-18T12:25:02.540Z,29.45
2022-10-18T12:27:36.961Z,30.90
2022-10-18T12:30:07.456Z,26.08
2022-10-18T12:32:35.151Z,24.35
2022-10-18T12:35:06.858Z,28.13
2022-10-18T12:38:02.413Z,30.17
2022-10-18T12:40:44.132Z,28.13
2022-10-18T12:43:17.328Z,27.25
2022-10-18T12:45:54.452Z,26.67
2022-10-18T12:48:42.552Z,25.98
2022-10-18T12:51:17.520Z,21.38
2022-10-18T12:53:46.049Z,30.35
2022-10-18T12:56:27.412Z,27.20
2022-10-18T12:59:32.140Z,26.35
2022-10-18T13:02:20.100Z,29.27
2022-10-18T13:04:48.196Z,26.55
2022-10-18T13:07:20.944Z,30.65
2022-10-18T13:10:15.236Z,23.27
2022-10-18T13:12:41.944Z,29.95
2022-10-18T13:15:37.962Z,31.25
2022-10-18T13:18:22.297Z,25.75
2022-10-18T13:21:07.991Z,27.92
2022-10-18T13:23:57.756Z,34.30
2022-10-18T13:26:45.323Z,31.30
2022-10-18T13:29:40.851Z,32.65
2022-10-18T13:32:22.921Z,32.10
2022-10-18T13:34:49.655Z,32.10
2022-10-18T13:37:16.222Z,34.17
2022-10-18T13:39:42.973Z,28.27
2022-10-18T13:42:15.212Z,32.05
2022-10-18T13:44:44.422Z,31.77
2022-10-18T13:47:31.735Z,30.77
2022-10-18T13:50:03.199Z,31.48
2022-10-18T13:53:00.673Z,34.88
2022-10-18T13:55:52.030Z,30.33
2022-10-18T13:59:05.708Z,32.53
2022-10-18T14:01:58.638Z,29.52
2022-10-18T14:04:31.287Z,27.60
2022-10-18T14:07:02.244Z,36.53
2022-10-18T14:12:32.647Z,26.73
2022-10-18T14:15:07.627Z,30.40
2022-10-18T14:17:36.447Z,29.88
2022-10-18T14:20:16.316Z,23.30
2022-10-18T14:22:51.011Z,37.92
2022-10-18T14:25:36.128Z,27.15
2022-10-18T14:28:27.430Z,24.85
2022-10-18T14:31:08.265Z,19.17
2022-10-18T14:33:47.330Z,25.00
2022-10-18T14:36:16.425Z,18.38
2022-10-18T14:38:48.191Z,19.70
2022-10-18T14:41:22.518Z,20.23
2022-10-18T14:43:49.703Z,15.05
2022-10-18T14:46:26.624Z,21.35
2022-10-18T14:49:02.160Z,23.45
2022-10-18T14:51:31.674Z,17.45
2022-10-18T14:53:58.294Z,14.57
2022-10-18T14:56:29.707Z,21.90
2022-10-18T15:01:26.371Z,15.18
2022-10-18T15:03:57.580Z,12.82
2022-10-18T15:06:24.497Z,16.55
2022-10-18T15:08:56.603Z,13.75
2022-10-18T15:11:24.086Z,18.40
2022-10-18T15:14:08.701Z,8.65
2022-10-18T15:16:38.321Z,16.50
2022-10-18T15:19:24.762Z,12.52
2022-10-18T15:25:10.733Z,24.70
2022-10-18T15:27:39.619Z,16.05
2022-10-18T15:30:17.091Z,12.00
2022-10-18T15:32:49.412Z,14.65
2022-10-18T15:35:24.970Z,15.15
2022-10-18T15:37:53.932Z,13.68
2022-10-18T15:40:23.103Z,22.05
2022-10-18T15:42:51.151Z,18.40
2022-10-18T15:45:23.341Z,19.02
2022-10-18T15:48:01.066Z,18.13
2022-10-18T15:50:47.605Z,22.25
2022-10-18T15:53:20.075Z,11.52
2022-10-18T15:56:00.359Z,9.43
2022-10-18T15:58:46.242Z,11.65
2022-10-18T16:01:41.955Z,17.50
2022-10-18T16:04:29.583Z,13.30
2022-10-18T16:06:57.529Z,11.23
2022-10-18T16:09:26.026Z,13.95
2022-10-18T16:11:56.775Z,12.73
2022-10-18T16:14:26.278Z,12.75
2022-10-18T16:16:56.178Z,14.38
2022-10-18T16:19:22.947Z,12.35
2022-10-18T16:21:50.631Z,10.68
2022-10-18T16:24:17.684Z,15.45
2022-10-18T16:26:44.489Z,12.30
2022-10-18T16:29:13.966Z,13.85
2022-10-18T16:31:40.712Z,16.35
2022-10-18T16:34:10.772Z,18.73
2022-10-18T16:36:37.747Z,12.13
2022-10-18T16:39:09.131Z,19.92
2022-10-18T16:41:35.762Z,16.13
2022-10-18T16:44:02.319Z,25.48
2022-10-18T16:46:30.867Z,23.00
2022-10-18T16:48:57.533Z,16.58
2022-10-18T16:51:24.471Z,18.55
2022-10-18T16:53:53.213Z,16.10
2022-10-18T16:56:20.427Z,21.13
2022-10-18T16:58:47.317Z,23.83
2022-10-18T17:01:16.560Z,23.92
2022-10-18T17:03:43.543Z,16.50
2022-10-18T17:06:27.781Z,17.55
2022-10-18T17:08:55.330Z,17.08
2022-10-18T17:11:25.026Z,16.48
2022-10-18T17:13:51.584Z,25.25
2022-10-18T17:19:03.943Z,15.18
2022-10-18T17:21:31.571Z,17.20
2022-10-18T17:24:05.859Z,20.00
2022-10-18T17:26:32.980Z,29.80
2022-10-18T17:29:02.106Z,19.38
2022-10-18T17:31:30.194Z,17.88
2022-10-18T17:33:58.451Z,15.65
2022-10-18T17:36:25.706Z,19.63
2022-10-18T17:38:55.103Z,13.02
2022-10-18T17:41:21.931Z,20.67
2022-10-18T17:43:48.701Z,16.13
2022-10-18T17:46:15.836Z,31.85
2022-10-18T17:48:42.768Z,22.67
2022-10-18T17:51:14.757Z,19.75
2022-10-18T17:53:41.421Z,24.25
2022-10-18T17:56:08.346Z,13.93
2022-10-18T17:58:35.224Z,30.75
2022-10-18T18:01:15.294Z,20.88
2022-10-18T18:03:41.886Z,20.92
2022-10-18T18:06:19.271Z,25.33
2022-10-18T18:08:47.487Z,21.13
2022-10-18T18:11:15.829Z,20.02
2022-10-18T18:13:44.057Z,25.65
2022-10-18T18:16:22.012Z,33.65
2022-10-18T18:18:51.230Z,18.88
2022-10-18T18:21:19.196Z,14.95
2022-10-18T18:23:46.293Z,21.15
2022-10-18T18:26:13.819Z,21.65
2022-10-18T18:28:40.773Z,29.88
2022-10-18T18:31:09.149Z,21.38
2022-10-18T18:33:36.461Z,21.75
2022-10-18T18:36:04.800Z,18.40
2022-10-18T18:38:31.922Z,21.15
2022-10-18T18:41:04.193Z,16.17
2022-10-18T18:43:30.739Z,16.55
2022-10-18T18:45:57.238Z,23.23
2022-10-18T18:48:23.972Z,22.02
2022-10-18T18:50:51.782Z,17.70
2022-10-18T18:53:18.830Z,23.85
2022-10-18T18:55:45.388Z,14.30
2022-10-18T18:58:12.063Z,13.68
2022-10-18T19:00:43.333Z,22.30
2022-10-18T19:03:13.864Z,17.42
2022-10-18T19:05:42.868Z,19.30
2022-10-18T19:08:09.483Z,14.25
2022-10-18T19:10:36.076Z,16.83
2022-10-18T19:13:02.941Z,16.48
2022-10-18T19:15:29.566Z,15.30
2022-10-18T19:17:56.443Z,20.20
2022-10-18T19:20:23.180Z,23.05
2022-10-18T19:22:50.108Z,24.60
2022-10-18T19:25:16.940Z,22.05
2022-10-18T19:27:43.755Z,17.08
2022-10-18T19:30:11.718Z,24.45
2022-10-18T19:32:38.510Z,18.08
2022-10-18T19:35:05.547Z,23.48
2022-10-18T19:37:32.796Z,15.35
2022-10-18T19:39:59.842Z,23.98
2022-10-18T19:42:31.203Z,20.75
2022-10-18T19:44:58.499Z,22.00
2022-10-18T19:47:25.307Z,27.98
2022-10-18T19:49:53.733Z,25.33
2022-10-18T19:52:20.582Z,17.27
2022-10-18T19:54:48.805Z,23.77
2022-10-18T19:57:15.704Z,19.88
2022-10-18T19:59:42.416Z,22.90
2022-10-18T20:02:14.171Z,14.85
2022-10-18T20:04:41.052Z,16.65
2022-10-18T20:07:10.802Z,24.00
2022-10-18T20:09:38.093Z,22.85
2022-10-18T20:12:04.839Z,28.15
2022-10-18T20:14:31.357Z,25.17
2022-10-18T20:16:57.930Z,20.13
2022-10-18T20:19:24.661Z,20.17
2022-10-18T20:21:51.251Z,31.77
2022-10-18T20:24:17.815Z,22.65
2022-10-18T20:26:44.419Z,18.38
2022-10-18T20:29:11.052Z,21.05
2022-10-18T20:31:39.142Z,23.88
2022-10-18T20:34:11.434Z,23.13
2022-10-18T20:36:38.515Z,18.23
2022-10-18T20:39:06.079Z,24.65
2022-10-18T20:41:35.238Z,26.10
2022-10-18T20:44:10.657Z,30.88
2022-10-18T20:46:38.403Z,32.33
2022-10-18T20:49:06.704Z,26.83
2022-10-18T20:51:34.093Z,22.33
2022-10-18T20:54:01.817Z,33.42
2022-10-18T20:56:28.408Z,28.17
2022-10-18T20:58:56.573Z,26.45
2022-10-18T21:01:28.912Z,24.08
2022-10-18T21:03:57.227Z,22.45
2022-10-18T21:06:26.209Z,29.83
2022-10-18T21:08:54.442Z,23.25
2022-10-18T21:11:21.657Z,26.02
2022-10-18T21:13:52.605Z,28.73
2022-10-18T21:16:19.387Z,25.77
2022-10-18T21:18:45.898Z,25.70
2022-10-18T21:21:15.087Z,22.52
2022-10-18T21:23:41.856Z,29.70
2022-10-18T21:26:08.885Z,32.78
2022-10-18T21:28:35.430Z,24.98
2022-10-18T21:31:13.448Z,29.83
2022-10-18T21:33:41.229Z,25.75
2022-10-18T21:36:08.128Z,35.75
2022-10-18T21:38:34.699Z,23.88
2022-10-18T21:41:01.674Z,26.30
2022-10-18T21:43:28.168Z,28.40
2022-10-18T21:46:00.575Z,24.55
2022-10-18T21:48:27.490Z,20.45
2022-10-18T21:50:54.450Z,21.85
2022-10-18T21:53:21.330Z,23.85
2022-10-18T21:55:48.278Z,22.48
2022-10-18T21:58:15.009Z,32.03
2022-10-18T22:00:41.613Z,23.92
2022-10-18T22:03:14.648Z,26.15
2022-10-18T22:05:41.184Z,18.52
2022-10-18T22:08:07.785Z,20.02
2022-10-18T22:10:34.523Z,16.85
2022-10-18T22:13:01.353Z,16.73
2022-10-18T22:15:28.013Z,21.67
2022-10-18T22:17:54.549Z,21.83
2022-10-18T22:20:21.069Z,26.40
2022-10-18T22:22:47.601Z,21.50
2022-10-18T22:25:14.141Z,19.27
2022-10-18T22:27:40.705Z,20.38
2022-10-18T22:30:07.736Z,28.02
2022-10-18T22:32:34.288Z,20.60
2022-10-18T22:35:00.988Z,21.30
2022-10-18T22:37:27.685Z,25.38
2022-10-18T22:39:54.228Z,19.65
2022-10-18T22:42:20.852Z,25.20
2022-10-18T22:44:47.393Z,27.90
2022-10-18T22:47:13.873Z,18.85
2022-10-18T22:49:40.418Z,18.20
2022-10-18T22:52:06.986Z,16.60
2022-10-18T22:54:33.488Z,22.30
2022-10-18T22:57:00.057Z,17.88
2022-10-18T22:59:26.581Z,23.67
2022-10-18T23:01:53.165Z,22.55
2022-10-18T23:04:19.697Z,23.60
2022-10-18T23:06:46.574Z,24.70
2022-10-18T23:09:13.241Z,24.10
2022-10-18T23:11:39.772Z,21.33
2022-10-18T23:14:06.476Z,23.80
2022-10-18T23:16:33.125Z,23.77
2022-10-18T23:18:59.883Z,29.73
2022-10-18T23:21:28.125Z,24.38
2022-10-18T23:23:55.645Z,22.88
2022-10-18T23:26:24.345Z,18.95
2022-10-18T23:28:52.790Z,21.73
2022-10-18T23:31:21.717Z,17.70
2022-10-18T23:33:49.703Z,29.55
2022-10-18T23:36:16.376Z,26.85
2022-10-18T23:38:43.317Z,19.35
2022-10-18T23:41:12.486Z,29.13
2022-10-18T23:43:39.516Z,20.95
2022-10-18T23:46:06.188Z,16.40
2022-10-18T23:48:34.170Z,22.98
2022-10-18T23:51:01.389Z,26.00
2022-10-18T23:53:28.119Z,30.65
2022-10-18T23:56:00.458Z,21.25
2022-10-18T23:58:28.526Z,14.20
